createdAt,value
2023-02-17T00:00:13.786Z,33.44
2023-02-17T00:05:12.118Z,33.42
2023-02-17T00:10:11.397Z,32.96
2023-02-17T00:15:10.743Z,32.30
2023-02-17T11:43:22.799Z,20.08
2023-02-17T11:48:20.082Z,20.03
2023-02-17T11:53:19.400Z,20.01
2023-02-17T11:58:17.765Z,19.96
2023-02-17T12:03:21.021Z,19.94
2023-02-17T12:08:18.101Z,19.91
2023-02-17T12:13:17.426Z,19.87
2023-02-17T12:18:15.758Z,19.83
2023-02-17T12:23:16.857Z,19.80
2023-02-17T12:28:19.286Z,19.76
2023-02-17T12:33:16.518Z,19.74
2023-02-17T12:38:12.602Z,19.73
2023-02-17T12:43:12.935Z,19.71
2023-02-17T12:48:12.260Z,19.68
2023-02-17T12:53:11.558Z,19.65
2023-02-17T12:58:10.870Z,19.62
2023-02-17T13:03:11.154Z,19.66
2023-02-17T13:08:08.460Z,19.71
2023-02-17T13:13:08.786Z,19.83
2023-02-17T13:18:07.104Z,19.95
2023-02-17T13:23:06.439Z,20.01
2023-02-17T13:28:06.572Z,20.14
2023-02-17T13:33:05.918Z,20.18
2023-02-17T13:38:04.055Z,20.17
2023-02-17T13:43:04.393Z,20.17
2023-02-17T13:48:03.529Z,20.14
2023-02-17T13:53:02.907Z,20.10
2023-02-17T13:58:01.051Z,20.08
2023-02-17T14:03:01.369Z,20.02
2023-02-17T14:07:59.645Z,19.99
2023-02-17T14:13:00.154Z,19.95
2023-02-17T14:18:00.324Z,19.88
2023-02-17T14:23:03.928Z,19.86
2023-02-17T14:27:56.766Z,19.83
2023-02-17T14:32:56.073Z,19.81
2023-02-17T14:37:55.405Z,19.76
2023-02-17T14:42:54.761Z,19.73
2023-02-17T14:47:53.874Z,19.69
2023-02-17T14:52:53.763Z,19.68
2023-02-17T14:57:52.721Z,19.65
2023-02-17T15:02:52.691Z,19.62
2023-02-17T15:07:51.824Z,19.58
2023-02-17T15:12:50.568Z,19.51
2023-02-17T15:17:49.412Z,19.51
2023-02-17T15:22:48.739Z,19.78
2023-02-17T15:27:50.119Z,19.95
2023-02-17T15:32:47.361Z,20.10
2023-02-17T15:37:47.346Z,20.20
2023-02-17T15:42:46.688Z,20.31
2023-02-17T15:47:45.852Z,20.33
2023-02-17T15:52:43.286Z,20.36
2023-02-17T15:57:43.563Z,20.35
2023-02-17T16:02:42.598Z,20.29
2023-02-17T16:07:42.721Z,20.26
2023-02-17T16:12:42.371Z,20.18
2023-02-17T16:17:42.219Z,20.11
2023-02-17T16:22:40.576Z,20.02
2023-02-17T16:27:41.030Z,19.96
2023-02-17T16:32:38.206Z,19.88
2023-02-17T16:37:37.326Z,19.84
2023-02-17T16:42:36.718Z,19.81
2023-02-17T16:47:36.170Z,19.73
2023-02-17T16:52:35.194Z,19.69
2023-02-17T16:57:35.165Z,19.62
2023-02-17T17:02:33.935Z,19.56
2023-02-17T17:07:32.887Z,19.51
2023-02-17T17:12:34.383Z,19.46
2023-02-17T17:17:31.509Z,19.40
2023-02-17T17:22:30.867Z,19.37
2023-02-17T17:27:30.006Z,19.33
2023-02-17T17:32:29.176Z,21.06
2023-02-17T17:37:29.352Z,22.03
2023-02-17T17:42:27.307Z,23.12
2023-02-17T17:47:30.257Z,24.61
2023-02-17T17:52:26.152Z,25.73
2023-02-17T17:57:25.305Z,26.18
2023-02-17T18:02:26.789Z,26.94
2023-02-17T18:07:24.734Z,27.55
2023-02-17T18:12:23.030Z,27.54
2023-02-17T18:17:23.707Z,27.27
2023-02-17T18:22:22.010Z,27.62
2023-02-17T18:27:20.969Z,28.15
2023-02-17T18:32:21.363Z,28.06
2023-02-17T18:37:19.844Z,27.66
2023-02-17T18:42:20.109Z,28.15
2023-02-17T18:47:19.443Z,28.34
2023-02-17T18:52:17.582Z,28.58
2023-02-17T18:57:17.868Z,28.61
2023-02-17T19:02:15.078Z,28.78
2023-02-17T19:07:15.209Z,28.77
2023-02-17T19:12:14.544Z,28.92
2023-02-17T19:17:15.501Z,29.12
2023-02-17T19:22:12.966Z,29.02
2023-02-17T19:27:12.245Z,29.08
2023-02-17T19:32:13.700Z,29.52
2023-02-17T19:37:10.857Z,29.79
2023-02-17T19:42:10.211Z,29.45
2023-02-17T19:47:11.387Z,29.97
2023-02-17T19:52:08.557Z,29.83
2023-02-17T19:57:08.734Z,29.15
2023-02-17T20:02:08.596Z,29.42
2023-02-17T20:07:06.219Z,29.73
2023-02-17T20:12:05.435Z,29.33
2023-02-17T20:17:04.655Z,29.37
2023-02-17T20:22:02.916Z,29.57
2023-02-17T20:27:03.672Z,29.76
2023-02-17T20:32:02.109Z,29.79
2023-02-17T20:37:01.616Z,30.05
2023-02-17T20:42:01.251Z,29.76
2023-02-17T20:47:01.229Z,29.49
2023-02-17T20:52:03.350Z,29.65
2023-02-17T20:56:59.727Z,29.92
2023-02-17T21:01:58.874Z,30.10
2023-02-17T21:06:57.172Z,30.26
2023-02-17T21:11:56.410Z,30.00
2023-02-17T21:16:55.612Z,29.58
2023-02-17T21:21:55.774Z,30.32
2023-02-17T21:26:54.044Z,30.47
2023-02-17T21:31:53.431Z,30.72
2023-02-17T21:36:52.261Z,30.13
2023-02-17T21:41:52.608Z,29.94
2023-02-17T21:46:51.718Z,30.43
2023-02-17T21:51:50.034Z,30.62
2023-02-17T21:56:48.636Z,30.95
2023-02-17T22:01:49.616Z,30.37
2023-02-17T22:06:48.898Z,30.31
2023-02-17T22:11:47.223Z,30.45
2023-02-17T22:16:47.643Z,30.86
2023-02-17T22:21:46.810Z,30.97
2023-02-17T22:26:46.125Z,31.13
2023-02-17T22:31:45.385Z,31.21
2023-02-17T22:36:43.556Z,30.60
2023-02-17T22:41:42.892Z,30.51
2023-02-17T22:46:42.161Z,30.75
2023-02-17T22:51:41.433Z,30.73
2023-02-17T22:56:41.726Z,31.13
2023-02-17T23:01:40.108Z,31.36
2023-02-17T23:06:40.218Z,31.41
2023-02-17T23:11:38.551Z,31.35
2023-02-17T23:16:38.933Z,31.19
2023-02-17T23:21:36.995Z,31.23
2023-02-17T23:26:37.313Z,31.25
2023-02-17T23:31:35.672Z,30.62
2023-02-17T23:36:34.792Z,30.80
2023-02-17T23:41:34.119Z,31.13
2023-02-17T23:46:33.526Z,31.01
2023-02-17T23:51:33.679Z,30.31
2023-02-17T23:56:33.041Z,30.01
